Time;durP1;ratioP1;P1;durP2;ratioP2;P2;SDS_P1;SDS_P2;PMS_P1;PMS_P2;Temp;Humidity;BMP_temperature;BMP_pressure;BME280_temperature;BME280_humidity;BME280_pressure;Samples;Min_cycle;Max_cycle;Signal;HPM_P1;HPM_P2
2023/04/06 00:02:06;;;;;;;6.57;3.70;;;18.40;41.50;;;;;;5076605;28;20860;-81
2023/04/06 00:04:34;;;;;;;4.37;3.53;;;18.40;41.60;;;;;;5071149;28;20458;-81
2023/04/06 00:07:04;;;;;;;7.40;4.10;;;18.40;41.60;;;;;;5078187;28;20553;-81
2023/04/06 00:09:32;;;;;;;4.17;3.77;;;18.30;41.50;;;;;;5079701;28;20561;-80
2023/04/06 00:12:00;;;;;;;4.13;3.63;;;18.30;41.60;;;;;;5065666;28;20481;-81
2023/04/06 00:14:29;;;;;;;3.70;3.40;;;18.30;41.70;;;;;;5080803;28;20452;-80
2023/04/06 00:16:57;;;;;;;4.73;3.87;;;18.30;41.80;;;;;;5082144;28;20448;-81
2023/04/06 00:19:26;;;;;;;5.67;4.30;;;18.20;41.80;;;;;;5081246;28;20457;-81
2023/04/06 00:21:54;;;;;;;4.97;4.00;;;18.20;41.90;;;;;;5079808;28;20484;-82
2023/04/06 00:24:23;;;;;;;5.13;3.97;;;18.20;42.00;;;;;;5080700;28;20453;-81
2023/04/06 00:26:51;;;;;;;4.43;3.90;;;18.10;41.80;;;;;;5081255;28;20448;-80
2023/04/06 00:29:20;;;;;;;5.40;3.80;;;18.10;42.00;;;;;;5080338;28;20456;-81
2023/04/06 00:31:48;;;;;;;4.47;4.03;;;18.10;41.80;;;;;;5078845;28;20464;-81
2023/04/06 00:34:16;;;;;;;6.90;3.87;;;18.10;41.90;;;;;;5081303;28;20454;-81
2023/04/06 00:36:45;;;;;;;4.33;3.77;;;18.10;42.00;;;;;;5080772;28;20463;-80
2023/04/06 00:39:13;;;;;;;5.80;3.93;;;18.10;41.90;;;;;;5070938;28;20569;-81
2023/04/06 00:41:43;;;;;;;4.77;4.30;;;18.00;42.00;;;;;;5080260;28;20449;-81
2023/04/06 00:44:11;;;;;;;5.20;4.47;;;17.90;42.00;;;;;;5080882;28;20505;-81
2023/04/06 00:46:39;;;;;;;5.23;3.90;;;18.00;42.10;;;;;;5088077;28;20553;-80
2023/04/06 00:49:08;;;;;;;5.90;3.87;;;17.90;42.10;;;;;;5081254;28;20473;-81
2023/04/06 00:51:36;;;;;;;8.63;4.30;;;17.90;42.10;;;;;;5077963;28;20458;-81
2023/04/06 00:54:04;;;;;;;4.83;3.60;;;17.90;42.10;;;;;;5079249;28;20516;-80
2023/04/06 00:56:32;;;;;;;4.33;3.70;;;17.90;42.10;;;;;;5080837;28;20466;-81
2023/04/06 00:59:02;;;;;;;4.63;3.77;;;17.80;42.10;;;;;;5079599;28;20480;-80
2023/04/06 01:01:32;;;;;;;5.53;4.00;;;17.80;42.20;;;;;;5079538;28;20445;-81
2023/04/06 01:04:02;;;;;;;5.20;4.00;;;17.80;42.10;;;;;;5071179;28;20453;-81
2023/04/06 01:06:30;;;;;;;5.03;3.53;;;17.70;42.20;;;;;;5079074;28;20449;-81
2023/04/06 01:08:58;;;;;;;3.97;3.57;;;17.70;42.30;;;;;;5076219;28;20470;-81
2023/04/06 01:11:27;;;;;;;4.10;3.70;;;17.70;42.20;;;;;;5078679;28;20520;-80
2023/04/06 01:13:55;;;;;;;8.43;3.60;;;17.60;42.40;;;;;;5078840;28;20472;-80
2023/04/06 01:16:24;;;;;;;4.83;3.50;;;17.60;42.40;;;;;;5080795;28;20452;-80
2023/04/06 01:18:53;;;;;;;6.57;3.70;;;17.60;42.50;;;;;;5082694;28;20491;-80
2023/04/06 01:21:21;;;;;;;5.50;3.90;;;17.50;42.50;;;;;;5083736;28;20455;-80
2023/04/06 01:23:51;;;;;;;4.93;4.20;;;17.50;42.50;;;;;;5083763;28;20455;-80
2023/04/06 01:26:19;;;;;;;5.57;3.67;;;17.50;42.70;;;;;;5084356;28;20536;-81
2023/04/06 01:28:47;;;;;;;3.67;3.33;;;17.50;42.60;;;;;;5083156;28;20469;-80
2023/04/06 01:31:15;;;;;;;4.80;3.40;;;17.50;42.50;;;;;;5083085;28;20481;-80
2023/04/06 01:33:44;;;;;;;3.63;3.23;;;17.50;42.80;;;;;;5083630;28;20450;-80
2023/04/06 01:36:12;;;;;;;3.73;3.30;;;17.50;42.60;;;;;;5074790;28;20492;-79
2023/04/06 01:38:41;;;;;;;3.70;3.03;;;17.40;42.60;;;;;;5082997;28;20564;-80
2023/04/06 01:41:10;;;;;;;3.60;3.30;;;17.40;42.70;;;;;;5083593;28;20445;-80
2023/04/06 01:43:38;;;;;;;3.60;3.30;;;17.40;42.60;;;;;;5074945;28;20545;-80
2023/04/06 01:46:06;;;;;;;4.17;3.77;;;17.30;42.70;;;;;;5079542;28;20454;-80
2023/04/06 01:48:34;;;;;;;5.93;3.60;;;17.30;42.60;;;;;;5074988;28;20480;-80
2023/04/06 01:51:03;;;;;;;4.27;3.77;;;17.30;42.80;;;;;;5074438;28;20534;-80
2023/04/06 01:53:31;;;;;;;5.00;3.87;;;17.30;42.80;;;;;;5083213;28;20525;-81
2023/04/06 01:55:59;;;;;;;3.60;3.30;;;17.20;42.80;;;;;;5081379;28;20450;-80
2023/04/06 01:58:28;;;;;;;3.70;3.40;;;17.20;42.80;;;;;;5082853;28;20481;-80
2023/04/06 02:00:56;;;;;;;3.97;3.50;;;17.20;42.80;;;;;;5081705;28;20457;-80
2023/04/06 02:03:25;;;;;;;4.57;3.60;;;17.10;42.80;;;;;;5075328;28;20450;-80
2023/04/06 02:05:53;;;;;;;3.97;3.37;;;17.20;42.90;;;;;;5077055;28;20964;-80
2023/04/06 02:08:21;;;;;;;7.60;3.60;;;17.10;42.80;;;;;;5083746;28;20480;-80
2023/04/06 02:10:49;;;;;;;3.87;3.47;;;17.10;43.00;;;;;;5083850;28;20536;-81
2023/04/06 02:13:17;;;;;;;3.20;3.00;;;17.00;42.80;;;;;;5082567;28;20456;-81
2023/04/06 02:15:47;;;;;;;4.30;3.90;;;17.00;43.00;;;;;;5084361;28;21022;-81
2023/04/06 02:18:17;;;;;;;3.77;3.43;;;17.00;42.90;;;;;;5083609;28;20461;-81
2023/04/06 02:20:45;;;;;;;3.87;3.57;;;17.00;43.10;;;;;;5082120;28;20444;-81
2023/04/06 02:23:13;;;;;;;3.47;3.20;;;17.00;43.00;;;;;;5080040;28;20480;-81
2023/04/06 02:25:42;;;;;;;6.07;4.17;;;17.00;43.00;;;;;;5081255;28;20445;-82
2023/04/06 02:28:10;;;;;;;5.77;3.30;;;16.90;43.00;;;;;;5075804;28;20492;-81
2023/04/06 02:30:38;;;;;;;5.37;3.60;;;16.90;42.90;;;;;;5083210;28;20454;-81
2023/04/06 02:33:08;;;;;;;4.00;3.60;;;16.90;43.10;;;;;;5084464;28;20445;-81
2023/04/06 02:35:36;;;;;;;4.10;3.50;;;16.90;42.90;;;;;;5082191;28;20525;-81
2023/04/06 02:38:04;;;;;;;4.40;3.80;;;16.80;43.00;;;;;;5079707;28;20485;-81
2023/04/06 02:40:32;;;;;;;3.90;3.60;;;16.90;43.10;;;;;;5082772;28;20452;-81
2023/04/06 02:43:01;;;;;;;4.10;3.60;;;16.80;43.10;;;;;;5074646;28;20469;-81
2023/04/06 02:45:29;;;;;;;4.13;3.77;;;16.80;43.10;;;;;;5077977;28;20452;-81
2023/04/06 02:47:57;;;;;;;3.90;3.50;;;16.80;43.10;;;;;;5078622;28;20472;-80
2023/04/06 02:50:27;;;;;;;3.57;3.17;;;16.80;43.20;;;;;;5082095;28;20473;-80
2023/04/06 02:52:55;;;;;;;5.20;3.27;;;16.80;43.10;;;;;;5081510;28;20517;-80
2023/04/06 02:55:24;;;;;;;3.50;3.23;;;16.70;43.10;;;;;;5076382;28;20490;-79
2023/04/06 02:57:52;;;;;;;3.97;3.60;;;16.80;43.10;;;;;;5082960;28;20556;-80
2023/04/06 03:00:20;;;;;;;4.00;3.60;;;16.70;43.00;;;;;;5082656;28;20450;-80
2023/04/06 03:02:48;;;;;;;3.50;3.20;;;16.60;43.20;;;;;;5082393;28;20448;-80
2023/04/06 03:05:16;;;;;;;5.30;3.70;;;16.70;43.20;;;;;;5081489;28;20533;-80
2023/04/06 03:07:46;;;;;;;4.37;3.40;;;16.60;43.10;;;;;;5081418;28;20532;-81
2023/04/06 03:10:15;;;;;;;4.40;4.00;;;16.60;43.30;;;;;;5073153;28;20525;-78
2023/04/06 03:12:43;;;;;;;3.70;3.40;;;16.60;43.20;;;;;;5076935;28;20556;-80
2023/04/06 03:15:11;;;;;;;4.00;3.30;;;16.60;43.20;;;;;;5073771;28;20486;-81
2023/04/06 03:17:40;;;;;;;3.93;3.30;;;16.60;43.40;;;;;;5082119;28;20453;-81
2023/04/06 03:20:10;;;;;;;4.07;3.77;;;16.60;43.30;;;;;;5082728;28;20442;-81
2023/04/06 03:22:38;;;;;;;3.70;3.40;;;16.50;43.10;;;;;;5081932;28;20449;-81
2023/04/06 03:25:08;;;;;;;4.40;3.67;;;16.50;43.40;;;;;;5073236;28;20446;-82
2023/04/06 03:27:36;;;;;;;3.93;3.63;;;16.50;43.50;;;;;;5079433;28;20525;-80
2023/04/06 03:30:06;;;;;;;4.23;3.83;;;16.50;43.30;;;;;;5077270;28;20472;-81
2023/04/06 03:32:35;;;;;;;3.60;3.30;;;16.40;43.30;;;;;;5076703;28;20445;-79
2023/04/06 03:35:03;;;;;;;3.83;3.53;;;16.40;43.40;;;;;;5059885;28;20469;-81
2023/04/06 03:37:31;;;;;;;3.50;3.30;;;16.40;43.40;;;;;;5073834;28;20492;-80
2023/04/06 03:39:59;;;;;;;3.83;3.53;;;16.30;43.50;;;;;;5073351;28;20442;-80
2023/04/06 03:42:29;;;;;;;4.87;4.43;;;16.30;43.40;;;;;;5068936;28;20477;-81
2023/04/06 03:44:57;;;;;;;3.70;3.30;;;16.30;43.40;;;;;;5073567;28;20480;-80
2023/04/06 03:47:25;;;;;;;4.33;3.73;;;16.30;43.40;;;;;;5069228;28;20480;-81
2023/04/06 03:49:55;;;;;;;3.80;3.50;;;16.20;43.40;;;;;;5072629;28;20481;-81
2023/04/06 03:52:23;;;;;;;4.27;3.87;;;16.30;43.50;;;;;;5087462;28;20536;-81
2023/04/06 03:54:51;;;;;;;4.30;3.90;;;16.20;43.20;;;;;;5079475;28;20456;-79
2023/04/06 03:57:20;;;;;;;4.53;3.67;;;16.20;43.50;;;;;;5079441;28;20449;-79
2023/04/06 03:59:49;;;;;;;4.50;4.10;;;16.20;43.40;;;;;;5075055;28;20496;-80
2023/04/06 04:02:18;;;;;;;5.07;3.90;;;16.20;43.50;;;;;;5074149;28;20450;-80
2023/04/06 04:04:46;;;;;;;4.10;3.80;;;16.10;43.30;;;;;;5072682;28;20545;-79
2023/04/06 04:07:14;;;;;;;4.70;4.03;;;16.10;43.60;;;;;;5074664;28;20476;-79
2023/04/06 04:09:42;;;;;;;3.97;3.67;;;16.10;43.60;;;;;;5073146;28;20502;-80
2023/04/06 04:12:10;;;;;;;4.60;4.20;;;16.10;43.70;;;;;;5076349;28;20456;-80
2023/04/06 04:14:38;;;;;;;5.83;4.40;;;16.10;43.60;;;;;;5075782;28;20457;-79
2023/04/06 04:17:07;;;;;;;4.17;3.87;;;16.00;43.60;;;;;;5076875;28;20438;-80
2023/04/06 04:19:35;;;;;;;4.27;3.97;;;16.00;43.80;;;;;;5086663;28;20453;-80
2023/04/06 04:22:04;;;;;;;3.93;3.63;;;16.00;43.70;;;;;;5076935;28;20458;-79
2023/04/06 04:24:32;;;;;;;4.67;4.33;;;16.00;43.70;;;;;;5084255;28;20525;-80
2023/04/06 04:27:01;;;;;;;4.37;3.97;;;15.90;43.50;;;;;;5082244;28;20457;-79
2023/04/06 04:29:29;;;;;;;4.60;4.20;;;16.00;43.60;;;;;;5084015;28;20473;-80
2023/04/06 04:31:57;;;;;;;4.90;4.20;;;15.90;43.50;;;;;;5085666;28;20426;-80
2023/04/06 04:34:27;;;;;;;4.70;4.30;;;15.90;43.70;;;;;;5083247;28;20468;-79
2023/04/06 04:36:56;;;;;;;4.63;4.23;;;15.90;43.50;;;;;;5073863;28;20465;-79
2023/04/06 04:39:24;;;;;;;5.30;4.37;;;15.90;43.50;;;;;;5065940;28;20560;-79
2023/04/06 04:41:53;;;;;;;4.13;3.83;;;15.90;43.70;;;;;;5075647;28;20464;-80
2023/04/06 04:44:21;;;;;;;5.43;4.00;;;15.80;43.60;;;;;;5079204;28;20454;-79
2023/04/06 04:46:49;;;;;;;4.87;4.40;;;15.80;43.70;;;;;;5091560;28;20454;-80
2023/04/06 04:49:18;;;;;;;4.87;4.47;;;15.80;43.50;;;;;;5080087;28;20476;-76
2023/04/06 04:51:47;;;;;;;4.90;4.43;;;15.80;43.60;;;;;;5072963;28;20472;-79
2023/04/06 04:54:15;;;;;;;4.60;4.20;;;15.80;43.80;;;;;;5067332;28;20470;-79
2023/04/06 04:56:43;;;;;;;7.40;5.93;;;15.80;43.70;;;;;;5080891;28;20437;-80
2023/04/06 04:59:12;;;;;;;8.93;6.00;;;15.80;43.80;;;;;;5079917;28;20466;-80
2023/04/06 05:01:40;;;;;;;6.50;5.40;;;15.80;43.60;;;;;;5079820;28;20430;-80
2023/04/06 05:04:21;;;;;;;7.57;5.90;;;15.70;43.70;;;;;;5078817;28;20538;-79
2023/04/06 05:06:51;;;;;;;7.27;5.90;;;15.70;43.70;;;;;;5080421;28;20446;-80
2023/04/06 05:09:18;;;;;;;6.60;6.00;;;15.70;43.80;;;;;;5072620;28;20473;-80
2023/04/06 05:11:46;;;;;;;7.37;6.00;;;15.70;43.80;;;;;;5077102;28;20466;-79
2023/04/06 05:14:14;;;;;;;7.80;5.90;;;15.70;43.60;;;;;;5079248;28;20450;-80
2023/04/06 05:16:43;;;;;;;7.80;5.67;;;15.70;43.70;;;;;;5076663;28;20454;-80
2023/04/06 05:19:12;;;;;;;7.90;5.73;;;15.70;43.70;;;;;;5075809;28;20481;-79
2023/04/06 05:21:40;;;;;;;7.40;5.90;;;15.70;43.60;;;;;;5075820;28;20446;-80
2023/04/06 05:24:09;;;;;;;6.53;5.37;;;15.70;43.80;;;;;;5078895;28;20446;-80
2023/04/06 05:26:37;;;;;;;5.93;5.33;;;15.60;43.80;;;;;;5081735;28;20452;-80
2023/04/06 05:29:05;;;;;;;6.10;5.27;;;15.70;43.60;;;;;;5076884;28;20469;-80
2023/04/06 05:31:34;;;;;;;6.63;5.40;;;15.60;43.80;;;;;;5078556;28;20469;-79
2023/04/06 05:34:02;;;;;;;6.57;5.47;;;15.60;43.80;;;;;;5068492;28;20475;-79
2023/04/06 05:36:31;;;;;;;5.60;5.10;;;15.60;43.80;;;;;;5074074;28;20482;-80
2023/04/06 05:38:59;;;;;;;6.87;5.70;;;15.60;43.70;;;;;;5078638;28;20501;-80
2023/04/06 05:41:29;;;;;;;5.80;5.10;;;15.60;43.70;;;;;;5077948;28;20477;-80
2023/04/06 05:43:57;;;;;;;7.27;5.27;;;15.60;43.80;;;;;;5080356;28;20476;-81
2023/04/06 05:46:25;;;;;;;5.67;4.80;;;15.60;43.90;;;;;;5073127;28;20445;-80
2023/04/06 05:48:53;;;;;;;4.93;4.53;;;15.60;43.80;;;;;;5077639;28;20480;-79
2023/04/06 05:51:21;;;;;;;6.33;5.23;;;15.60;43.80;;;;;;5071547;28;20462;-80
2023/04/06 05:53:50;;;;;;;5.30;4.80;;;15.60;43.60;;;;;;5072462;28;20480;-80
2023/04/06 05:56:17;;;;;;;5.87;5.00;;;15.60;43.80;;;;;;5080437;28;20456;-80
2023/04/06 05:58:47;;;;;;;4.97;4.47;;;15.60;43.60;;;;;;5078302;28;20461;-80
2023/04/06 06:01:16;;;;;;;5.37;4.70;;;15.60;43.80;;;;;;5076144;28;20442;-79
2023/04/06 06:03:44;;;;;;;5.70;4.40;;;15.60;43.80;;;;;;5075806;28;20480;-79
2023/04/06 06:06:12;;;;;;;5.87;5.27;;;15.60;43.80;;;;;;5066622;28;20473;-78
2023/04/06 06:08:40;;;;;;;5.60;4.63;;;15.70;43.80;;;;;;5077214;28;20464;-79
2023/04/06 06:11:08;;;;;;;6.97;4.57;;;15.70;43.60;;;;;;5077939;28;20466;-80
2023/04/06 06:13:36;;;;;;;7.13;4.97;;;15.70;43.70;;;;;;5081227;28;20449;-80
2023/04/06 06:16:06;;;;;;;5.07;4.57;;;15.80;43.80;;;;;;5073254;28;20448;-79
2023/04/06 06:18:34;;;;;;;5.07;4.43;;;15.80;43.70;;;;;;5081093;28;20507;-80
2023/04/06 06:21:02;;;;;;;5.00;4.43;;;15.80;43.60;;;;;;5079534;28;20473;-79
2023/04/06 06:23:30;;;;;;;4.60;4.20;;;15.90;43.70;;;;;;5074172;28;20453;-79
2023/04/06 06:25:58;;;;;;;5.37;4.73;;;15.90;43.70;;;;;;5079541;28;20441;-80
2023/04/06 06:28:26;;;;;;;5.10;4.70;;;15.90;43.70;;;;;;5081196;28;20469;-80
2023/04/06 06:30:54;;;;;;;5.00;4.60;;;15.90;43.80;;;;;;5072954;28;20466;-79
2023/04/06 06:33:27;;;;;;;5.87;4.90;;;15.90;43.70;;;;;;5079372;28;20485;-82
2023/04/06 06:35:55;;;;;;;6.23;4.83;;;16.00;43.90;;;;;;5071071;28;20497;-80
2023/04/06 06:38:23;;;;;;;4.80;4.40;;;16.00;43.80;;;;;;5071603;28;20478;-80
2023/04/06 06:40:51;;;;;;;5.17;4.67;;;16.10;44.00;;;;;;5074099;28;20456;-80
2023/04/06 06:43:19;;;;;;;4.20;3.90;;;16.10;43.90;;;;;;5078860;28;20442;-80
2023/04/06 06:45:47;;;;;;;4.70;4.17;;;16.10;43.90;;;;;;5076134;28;20464;-80
2023/04/06 06:48:15;;;;;;;5.07;4.57;;;16.20;43.80;;;;;;5079278;28;20450;-79
2023/04/06 06:50:44;;;;;;;4.40;4.00;;;16.20;43.90;;;;;;5077106;28;20482;-80
2023/04/06 06:53:12;;;;;;;4.93;4.07;;;16.30;43.90;;;;;;5075306;28;20469;-80
2023/04/06 06:55:40;;;;;;;5.73;4.70;;;16.30;43.80;;;;;;5078028;28;20442;-81
2023/04/06 06:58:08;;;;;;;4.40;4.00;;;16.30;43.80;;;;;;5088930;28;20457;-80
2023/04/06 07:00:36;;;;;;;5.07;4.67;;;16.40;44.00;;;;;;5080538;28;20449;-80
2023/04/06 07:03:04;;;;;;;4.57;4.17;;;16.40;43.80;;;;;;5065726;28;20449;-80
2023/04/06 07:05:32;;;;;;;4.90;4.40;;;16.50;43.90;;;;;;5081237;28;20438;-80
2023/04/06 07:08:09;;;;;;;4.27;3.97;;;16.50;43.70;;;;;;5075417;28;20481;-80
2023/04/06 07:10:38;;;;;;;4.47;4.07;;;16.60;43.90;;;;;;5077015;28;20458;-80
2023/04/06 07:13:06;;;;;;;5.80;4.17;;;16.60;43.80;;;;;;5078996;28;20464;-80
2023/04/06 07:15:34;;;;;;;4.27;3.90;;;16.70;43.80;;;;;;5078425;28;20493;-80
2023/04/06 07:18:02;;;;;;;4.50;4.10;;;16.70;43.70;;;;;;5077906;28;20458;-80
2023/04/06 07:20:31;;;;;;;4.70;4.20;;;16.70;43.70;;;;;;5074292;28;20456;-80
2023/04/06 07:22:59;;;;;;;4.20;3.90;;;16.80;43.80;;;;;;5078777;28;20449;-80
2023/04/06 07:25:29;;;;;;;4.93;3.40;;;16.90;43.70;;;;;;5070017;28;20468;-79
2023/04/06 07:27:57;;;;;;;3.80;3.50;;;17.00;43.70;;;;;;5065275;28;20470;-80
2023/04/06 07:30:26;;;;;;;5.07;3.77;;;17.00;43.50;;;;;;5065487;28;20529;-80
2023/04/06 07:32:55;;;;;;;5.30;4.53;;;17.10;43.60;;;;;;5078120;28;20469;-79
2023/04/06 07:35:23;;;;;;;4.23;3.83;;;17.20;43.50;;;;;;5077446;28;20449;-80
2023/04/06 07:37:51;;;;;;;5.03;4.10;;;17.20;43.40;;;;;;5070446;28;20524;-82
2023/04/06 07:40:20;;;;;;;5.00;4.30;;;17.30;43.70;;;;;;5076062;28;20442;-81
2023/04/06 07:42:49;;;;;;;5.73;4.70;;;17.40;43.50;;;;;;5072367;28;20460;-79
2023/04/06 07:45:17;;;;;;;7.03;5.97;;;17.40;43.30;;;;;;5071725;28;20852;-80
2023/04/06 07:47:46;;;;;;;7.13;5.87;;;17.50;43.40;;;;;;5076085;28;20434;-79
2023/04/06 07:50:14;;;;;;;8.10;6.10;;;17.50;43.40;;;;;;5074125;28;20452;-79
2023/04/06 07:52:43;;;;;;;7.47;6.63;;;17.60;43.40;;;;;;5076439;28;20466;-78
2023/04/06 07:55:10;;;;;;;7.10;6.40;;;17.70;43.50;;;;;;5077629;28;20442;-80
2023/04/06 07:57:38;;;;;;;9.53;7.60;;;17.80;43.60;;;;;;5074959;28;20456;-80
2023/04/06 08:00:10;;;;;;;11.67;8.50;;;17.90;43.60;;;;;;5068881;28;20458;-81
2023/04/06 08:02:38;;;;;;;8.27;6.83;;;18.00;43.60;;;;;;5073827;28;20441;-81
2023/04/06 08:05:07;;;;;;;11.80;7.70;;;18.10;43.70;;;;;;5065942;28;20493;-80
2023/04/06 08:07:35;;;;;;;10.50;8.43;;;18.20;43.80;;;;;;5074997;28;20442;-79
2023/04/06 08:10:03;;;;;;;11.43;7.80;;;18.30;43.80;;;;;;5071825;28;20445;-79
2023/04/06 08:12:33;;;;;;;9.80;8.30;;;18.40;43.70;;;;;;5075026;28;20469;-79
2023/04/06 08:15:02;;;;;;;11.57;8.27;;;18.50;43.60;;;;;;5069631;28;20544;-78
2023/04/06 08:17:32;;;;;;;11.47;7.80;;;18.70;43.70;;;;;;5078124;28;20519;-79
2023/04/06 08:20:00;;;;;;;11.80;8.50;;;18.80;43.70;;;;;;5073202;28;20435;-80
2023/04/06 08:22:28;;;;;;;11.97;8.77;;;19.00;43.80;;;;;;5072452;28;20434;-80
2023/04/06 08:24:55;;;;;;;9.70;7.60;;;19.20;43.60;;;;;;5072858;28;20480;-80
2023/04/06 08:27:24;;;;;;;13.93;10.53;;;18.90;37.80;;;;;;5072089;28;20449;-78
2023/04/06 08:29:52;;;;;;;15.27;11.03;;;18.30;33.60;;;;;;5070298;28;20542;-80
2023/04/06 08:32:20;;;;;;;11.43;8.90;;;17.10;33.70;;;;;;5073279;28;20466;-79
2023/04/06 08:34:50;;;;;;;16.50;9.77;;;16.60;34.10;;;;;;5063103;28;20447;-79
2023/04/06 08:37:18;;;;;;;15.10;9.30;;;15.70;30.20;;;;;;5073991;28;20458;-81
2023/04/06 08:39:46;;;;;;;11.37;9.03;;;15.10;30.70;;;;;;5066682;28;20470;-79
2023/04/06 08:42:16;;;;;;;16.97;11.20;;;14.50;31.00;;;;;;5069639;28;20476;-80
2023/04/06 08:44:45;;;;;;;19.70;10.80;;;14.60;31.10;;;;;;5073155;28;20441;-80
2023/04/06 08:47:13;;;;;;;13.33;10.00;;;14.20;32.20;;;;;;5073284;28;20462;-80
2023/04/06 08:49:41;;;;;;;20.60;9.80;;;13.90;32.30;;;;;;5069192;28;20473;-80
2023/04/06 08:52:11;;;;;;;18.27;8.77;;;13.60;32.80;;;;;;5065918;28;20466;-80
2023/04/06 08:54:39;;;;;;;13.17;9.67;;;13.90;31.90;;;;;;5075035;28;20443;-81
2023/04/06 08:57:07;;;;;;;12.00;9.07;;;13.60;32.10;;;;;;5075631;28;20442;-82
2023/04/06 08:59:36;;;;;;;22.30;10.53;;;13.60;32.40;;;;;;5084496;28;20470;-82
2023/04/06 09:02:05;;;;;;;13.97;9.57;;;14.30;34.40;;;;;;5069939;28;20444;-78
2023/04/06 09:04:33;;;;;;;11.93;9.00;;;14.40;30.90;;;;;;5082013;28;20546;-77
2023/04/06 09:07:02;;;;;;;12.00;7.87;;;14.50;35.20;;;;;;5067553;28;20457;-78
2023/04/06 09:09:31;;;;;;;10.47;7.50;;;16.10;35.70;;;;;;5072371;28;20465;-77
2023/04/06 09:12:05;;;;;;;8.60;5.90;;;17.50;34.00;;;;;;5070426;28;20465;-78
2023/04/06 09:14:37;;;;;;;26.30;5.93;;;18.50;32.90;;;;;;5068554;28;20453;-78
2023/04/06 09:17:06;;;;;;;6.80;5.10;;;19.30;32.20;;;;;;5060199;28;20450;-78
2023/04/06 09:19:33;;;;;;;7.97;5.73;;;19.90;31.70;;;;;;5068913;28;20469;-77
2023/04/06 09:22:06;;;;;;;8.73;5.27;;;20.40;31.40;;;;;;5071295;28;20457;-78
2023/04/06 09:24:46;;;;;;;12.20;5.10;;;21.00;31.20;;;;;;5070855;28;20542;-78
2023/04/06 09:27:15;;;;;;;9.00;4.50;;;21.40;31.00;;;;;;5069950;28;20449;-77
2023/04/06 09:29:43;;;;;;;5.67;4.57;;;21.80;30.90;;;;;;5082227;28;20496;-77
2023/04/06 09:32:11;;;;;;;10.10;4.30;;;22.10;30.80;;;;;;5083046;28;20450;-80
2023/04/06 09:34:39;;;;;;;5.30;3.50;;;22.40;30.70;;;;;;5079634;28;20459;-78
2023/04/06 09:37:14;;;;;;;9.07;3.80;;;22.70;30.50;;;;;;5087516;28;20453;-78
2023/04/06 09:39:45;;;;;;;6.60;4.30;;;23.00;30.40;;;;;;5074123;28;20565;-78
2023/04/06 09:42:23;;;;;;;8.40;3.70;;;23.30;30.30;;;;;;5079052;28;20448;-78
2023/04/06 09:44:52;;;;;;;4.37;2.90;;;23.50;30.10;;;;;;5070392;28;20486;-78
2023/04/06 09:47:20;;;;;;;6.83;3.43;;;23.80;30.00;;;;;;5082298;28;20453;-78
2023/04/06 09:49:49;;;;;;;7.27;3.30;;;24.00;30.00;;;;;;5071227;28;20952;-78
2023/04/06 09:52:17;;;;;;;4.50;3.47;;;24.20;30.00;;;;;;5079536;28;20464;-78
2023/04/06 09:54:46;;;;;;;2.87;2.67;;;24.40;29.90;;;;;;5085562;28;20441;-77
2023/04/06 09:57:18;;;;;;;3.50;3.23;;;24.60;29.80;;;;;;5085397;28;20533;-78
2023/04/06 09:59:49;;;;;;;3.43;3.23;;;24.80;29.80;;;;;;5080594;28;20474;-78
2023/04/06 10:02:21;;;;;;;3.40;3.10;;;25.00;29.70;;;;;;5072015;28;20453;-78
2023/04/06 10:04:54;;;;;;;3.17;2.97;;;25.20;29.60;;;;;;5083748;28;20452;-77
2023/04/06 10:07:22;;;;;;;4.10;3.10;;;25.30;29.60;;;;;;5090878;28;20452;-78
2023/04/06 10:09:51;;;;;;;3.30;3.00;;;25.40;29.50;;;;;;5084746;28;20472;-78
2023/04/06 10:12:22;;;;;;;5.20;3.00;;;25.60;29.50;;;;;;5073729;28;20451;-78
2023/04/06 10:14:50;;;;;;;3.07;2.77;;;25.70;29.50;;;;;;5081093;28;20450;-78
2023/04/06 10:17:18;;;;;;;3.30;2.87;;;25.90;29.40;;;;;;5073674;28;20821;-78
2023/04/06 10:19:50;;;;;;;3.30;3.00;;;26.00;29.40;;;;;;5073463;28;20520;-78
2023/04/06 10:22:22;;;;;;;3.77;3.10;;;26.10;29.30;;;;;;5077408;28;20426;-78
2023/04/06 10:24:52;;;;;;;3.27;2.93;;;26.20;29.20;;;;;;5080453;28;20520;-78
2023/04/06 10:27:28;;;;;;;3.33;3.13;;;26.30;29.30;;;;;;5079042;28;20415;-78
2023/04/06 10:30:02;;;;;;;4.03;3.73;;;26.40;29.10;;;;;;5081937;28;20431;-79
2023/04/06 10:32:36;;;;;;;4.10;3.80;;;26.50;28.80;;;;;;5087891;28;20427;-78
2023/04/06 10:35:09;;;;;;;4.23;3.90;;;26.60;28.70;;;;;;5064541;28;20457;-77
2023/04/06 10:37:51;;;;;;;3.73;3.53;;;26.60;28.60;;;;;;5073270;28;20447;-79
2023/04/06 10:40:23;;;;;;;4.10;3.80;;;26.80;28.60;;;;;;5063620;28;20439;-78
2023/04/06 10:42:51;;;;;;;6.27;4.27;;;26.90;28.70;;;;;;5071462;28;20416;-78
2023/04/06 10:45:23;;;;;;;4.73;3.93;;;27.00;28.60;;;;;;5073582;28;20413;-77
2023/04/06 10:47:52;;;;;;;4.10;3.70;;;27.10;28.50;;;;;;5081771;28;20470;-79
2023/04/06 10:50:21;;;;;;;4.43;4.03;;;27.20;28.40;;;;;;5083512;28;20432;-76
2023/04/06 10:52:59;;;;;;;3.50;3.20;;;27.20;28.30;;;;;;5077020;28;20431;-78
2023/04/06 10:55:29;;;;;;;3.93;3.63;;;27.30;28.30;;;;;;5075821;28;20426;-77
2023/04/06 10:57:57;;;;;;;4.00;3.60;;;27.40;28.40;;;;;;5084640;28;20446;-78
2023/04/06 11:00:25;;;;;;;3.60;3.40;;;27.40;28.40;;;;;;5073060;28;20468;-77
2023/04/06 11:03:10;;;;;;;3.53;3.23;;;27.50;28.50;;;;;;5076223;28;20427;-77
2023/04/06 11:05:38;;;;;;;3.77;3.43;;;27.60;28.50;;;;;;5069523;28;20433;-77
2023/04/06 11:08:09;;;;;;;3.73;3.43;;;27.60;28.50;;;;;;5071303;28;20473;-77
2023/04/06 11:10:38;;;;;;;4.23;3.83;;;27.80;28.40;;;;;;5074460;28;20428;-78
2023/04/06 11:13:07;;;;;;;4.37;4.00;;;27.80;28.30;;;;;;5071239;28;20462;-80
2023/04/06 11:15:35;;;;;;;3.70;3.50;;;27.90;28.40;;;;;;5068593;28;20440;-79
2023/04/06 11:18:06;;;;;;;4.30;3.90;;;28.40;28.30;;;;;;5069584;28;20467;-78
2023/04/06 11:20:34;;;;;;;3.67;3.37;;;29.50;27.60;;;;;;5072158;28;20434;-79
2023/04/06 11:23:03;;;;;;;3.57;3.27;;;30.60;26.70;;;;;;5072225;28;20540;-78
2023/04/06 11:25:32;;;;;;;3.87;3.60;;;31.70;26.20;;;;;;5071200;28;20446;-79
2023/04/06 11:28:02;;;;;;;2.93;2.83;;;32.80;25.20;;;;;;5071327;28;20564;-79
2023/04/06 11:30:30;;;;;;;3.27;3.07;;;33.80;24.40;;;;;;5064180;28;20475;-79
2023/04/06 11:33:02;;;;;;;3.37;3.17;;;34.50;23.40;;;;;;5071855;28;20460;-76
2023/04/06 11:35:30;;;;;;;3.60;3.40;;;35.20;22.80;;;;;;5069075;28;20446;-79
2023/04/06 11:37:58;;;;;;;2.80;2.70;;;35.90;22.30;;;;;;5071698;28;20561;-79
2023/04/06 11:40:29;;;;;;;3.23;3.03;;;36.40;21.90;;;;;;5068485;28;20463;-78
2023/04/06 11:42:57;;;;;;;4.87;3.80;;;36.90;21.20;;;;;;5071971;28;20530;-79
2023/04/06 11:45:27;;;;;;;3.40;3.30;;;37.40;21.30;;;;;;5068951;28;20430;-79
2023/04/06 11:47:59;;;;;;;3.30;3.10;;;37.80;20.80;;;;;;5071312;28;20492;-78
2023/04/06 11:50:32;;;;;;;3.23;3.13;;;38.10;20.80;;;;;;5069064;28;20504;-78
2023/04/06 11:53:01;;;;;;;3.37;3.27;;;38.60;20.20;;;;;;5070459;28;20454;-75
2023/04/06 11:55:29;;;;;;;3.07;2.97;;;39.10;20.10;;;;;;5071665;28;20552;-77
2023/04/06 11:58:00;;;;;;;3.20;3.10;;;39.30;19.70;;;;;;5071784;28;20508;-78
2023/04/06 12:00:34;;;;;;;3.30;3.20;;;39.70;19.70;;;;;;5071126;28;20456;-78
2023/04/06 12:03:02;;;;;;;3.30;3.20;;;39.80;19.60;;;;;;5067213;28;20480;-76
2023/04/06 12:05:31;;;;;;;3.50;3.33;;;39.90;19.20;;;;;;5072026;28;20532;-78
2023/04/06 12:07:59;;;;;;;3.37;3.27;;;40.10;19.10;;;;;;5065552;28;20477;-77
2023/04/06 12:10:30;;;;;;;3.27;3.17;;;40.40;19.20;;;;;;5071087;28;20457;-77
2023/04/06 12:12:58;;;;;;;3.50;3.40;;;40.40;18.70;;;;;;5069378;28;20438;-78
2023/04/06 12:15:26;;;;;;;3.40;3.20;;;40.40;18.90;;;;;;5070859;28;20476;-76
2023/04/06 12:17:55;;;;;;;3.30;3.20;;;40.70;18.80;;;;;;5070499;28;20500;-76
2023/04/06 12:20:24;;;;;;;3.23;3.13;;;40.80;18.70;;;;;;5069869;28;20548;-78
2023/04/06 12:22:54;;;;;;;3.17;3.07;;;40.90;18.50;;;;;;5068221;28;20449;-78
2023/04/06 12:25:22;;;;;;;3.13;3.03;;;41.00;18.40;;;;;;5069208;28;20451;-77
2023/04/06 12:27:54;;;;;;;3.60;3.50;;;41.10;18.50;;;;;;5070611;28;20469;-79
2023/04/06 12:30:22;;;;;;;3.10;3.00;;;41.20;18.50;;;;;;5070936;28;20460;-78
2023/04/06 12:32:51;;;;;;;3.73;3.50;;;41.20;18.30;;;;;;5070600;28;20460;-78
2023/04/06 12:35:20;;;;;;;3.30;3.20;;;41.20;18.40;;;;;;5068653;28;20473;-78
2023/04/06 12:37:48;;;;;;;3.60;3.50;;;41.20;18.30;;;;;;5070817;28;20508;-78
2023/04/06 12:40:17;;;;;;;3.53;3.33;;;41.30;18.50;;;;;;5052826;28;20438;-80
2023/04/06 12:42:46;;;;;;;3.87;3.77;;;41.20;18.20;;;;;;5064739;28;20449;-79
2023/04/06 12:45:14;;;;;;;3.40;3.30;;;41.20;18.20;;;;;;5068170;28;20433;-78
2023/04/06 12:47:42;;;;;;;3.10;3.00;;;41.20;18.30;;;;;;5069927;28;20449;-78
2023/04/06 12:50:11;;;;;;;3.70;3.50;;;41.20;18.40;;;;;;5068586;28;20449;-79
2023/04/06 12:52:40;;;;;;;3.40;3.30;;;41.20;18.40;;;;;;5071276;28;20449;-78
2023/04/06 12:55:09;;;;;;;3.70;3.60;;;41.20;18.30;;;;;;5062847;28;20531;-78